sensor_id;sensor_type;location;lat;lon;timestamp;pressure;altitude;pressure_sealevel;temperature;humidity
19594;BME280;9944;48.240;16.478;2023-09-07T00:03:55;100407.38;;;17.34;64.17
19594;BME280;9944;48.240;16.478;2023-09-07T00:07:59;100400.41;;;17.27;64.39
19594;BME280;9944;48.240;16.478;2023-09-07T00:12:03;100396.94;;;17.24;64.71
19594;BME280;9944;48.240;16.478;2023-09-07T00:16:06;100406.72;;;17.22;64.78
19594;BME280;9944;48.240;16.478;2023-09-07T00:20:12;100405.00;;;17.21;64.75
19594;BME280;9944;48.240;16.478;2023-09-07T00:24:16;100406.94;;;17.12;64.54
19594;BME280;9944;48.240;16.478;2023-09-07T00:28:20;100407.13;;;17.03;64.57
19594;BME280;9944;48.240;16.478;2023-09-07T00:32:24;100407.25;;;16.97;64.52
19594;BME280;9944;48.240;16.478;2023-09-07T00:36:28;100403.88;;;16.89;64.54
19594;BME280;9944;48.240;16.478;2023-09-07T00:40:32;100406.66;;;16.81;64.82
19594;BME280;9944;48.240;16.478;2023-09-07T00:44:36;100397.88;;;16.74;64.99
19594;BME280;9944;48.240;16.478;2023-09-07T00:48:39;100395.38;;;16.67;65.13
19594;BME280;9944;48.240;16.478;2023-09-07T00:52:46;100391.94;;;16.60;65.21
19594;BME280;9944;48.240;16.478;2023-09-07T00:56:50;100394.72;;;16.54;65.23
19594;BME280;9944;48.240;16.478;2023-09-07T01:00:55;100385.03;;;16.50;65.24
19594;BME280;9944;48.240;16.478;2023-09-07T01:04:58;100381.56;;;16.46;65.51
19594;BME280;9944;48.240;16.478;2023-09-07T01:09:10;100378.09;;;16.41;65.63
19594;BME280;9944;48.240;16.478;2023-09-07T01:13:15;100380.78;;;16.39;65.66
19594;BME280;9944;48.240;16.478;2023-09-07T01:17:19;100378.97;;;16.40;65.72
19594;BME280;9944;48.240;16.478;2023-09-07T01:21:24;100389.69;;;16.38;65.82
19594;BME280;9944;48.240;16.478;2023-09-07T01:25:29;100389.75;;;16.35;65.85
19594;BME280;9944;48.240;16.478;2023-09-07T01:29:34;100388.94;;;16.32;66.08
19594;BME280;9944;48.240;16.478;2023-09-07T01:33:39;100396.97;;;16.29;66.19
19594;BME280;9944;48.240;16.478;2023-09-07T01:37:43;100392.56;;;16.26;66.22
19594;BME280;9944;48.240;16.478;2023-09-07T01:41:48;100400.66;;;16.21;66.64
19594;BME280;9944;48.240;16.478;2023-09-07T01:45:51;100406.88;;;16.19;66.81
19594;BME280;9944;48.240;16.478;2023-09-07T01:49:55;100405.19;;;16.15;66.98
19594;BME280;9944;48.240;16.478;2023-09-07T01:53:59;100396.38;;;16.11;67.23
19594;BME280;9944;48.240;16.478;2023-09-07T01:58:04;100396.44;;;16.06;67.30
19594;BME280;9944;48.240;16.478;2023-09-07T02:02:07;100404.47;;;16.03;67.44
19594;BME280;9944;48.240;16.478;2023-09-07T02:06:11;100412.53;;;16.00;67.26
19594;BME280;9944;48.240;16.478;2023-09-07T02:10:14;100416.97;;;16.00;67.49
19594;BME280;9944;48.240;16.478;2023-09-07T02:14:19;100409.91;;;15.97;67.75
19594;BME280;9944;48.240;16.478;2023-09-07T02:18:23;100406.41;;;15.95;67.68
19594;BME280;9944;48.240;16.478;2023-09-07T02:22:26;100413.56;;;15.92;67.80
19594;BME280;9944;48.240;16.478;2023-09-07T02:26:29;100421.63;;;15.87;67.60
19594;BME280;9944;48.240;16.478;2023-09-07T02:30:35;100423.41;;;15.85;67.59
19594;BME280;9944;48.240;16.478;2023-09-07T02:34:38;100419.88;;;15.83;67.67
19594;BME280;9944;48.240;16.478;2023-09-07T02:38:42;100423.44;;;15.82;67.57
19594;BME280;9944;48.240;16.478;2023-09-07T02:42:46;100411.09;;;15.78;67.69
19594;BME280;9944;48.240;16.478;2023-09-07T02:46:51;100422.66;;;15.75;67.58
19594;BME280;9944;48.240;16.478;2023-09-07T02:50:54;100419.19;;;15.68;67.54
19594;BME280;9944;48.240;16.478;2023-09-07T02:55:02;100422.84;;;15.63;67.63
19594;BME280;9944;48.240;16.478;2023-09-07T02:59:06;100418.47;;;15.57;67.52
19594;BME280;9944;48.240;16.478;2023-09-07T03:03:12;100420.34;;;15.52;67.76
19594;BME280;9944;48.240;16.478;2023-09-07T03:07:16;100425.69;;;15.49;67.71
19594;BME280;9944;48.240;16.478;2023-09-07T03:11:20;100416.94;;;15.41;67.55
19594;BME280;9944;48.240;16.478;2023-09-07T03:15:24;100420.56;;;15.34;67.66
19594;BME280;9944;48.240;16.478;2023-09-07T03:19:30;100420.63;;;15.29;68.00
19594;BME280;9944;48.240;16.478;2023-09-07T03:23:34;100420.69;;;15.24;67.86
19594;BME280;9944;48.240;16.478;2023-09-07T03:27:38;100421.63;;;15.20;68.03
19594;BME280;9944;48.240;16.478;2023-09-07T03:31:44;100427.00;;;15.17;68.17
19594;BME280;9944;48.240;16.478;2023-09-07T03:35:49;100420.84;;;15.15;68.41
19594;BME280;9944;48.240;16.478;2023-09-07T03:39:54;100436.81;;;15.12;68.29
19594;BME280;9944;48.240;16.478;2023-09-07T03:43:58;100431.56;;;15.06;68.45
19594;BME280;9944;48.240;16.478;2023-09-07T03:48:04;100428.97;;;15.01;68.65
19594;BME280;9944;48.240;16.478;2023-09-07T03:52:10;100433.41;;;14.98;68.72
19594;BME280;9944;48.240;16.478;2023-09-07T03:56:14;100433.50;;;14.93;68.47
19594;BME280;9944;48.240;16.478;2023-09-07T04:00:18;100433.53;;;14.88;68.67
19594;BME280;9944;48.240;16.478;2023-09-07T04:04:22;100429.16;;;14.84;68.71
19594;BME280;9944;48.240;16.478;2023-09-07T04:08:27;100441.56;;;14.84;68.96
19594;BME280;9944;48.240;16.478;2023-09-07T04:12:31;100437.13;;;14.81;69.01
19594;BME280;9944;48.240;16.478;2023-09-07T04:16:35;100440.72;;;14.77;68.89
19594;BME280;9944;48.240;16.478;2023-09-07T04:20:43;100441.63;;;14.74;69.12
19594;BME280;9944;48.240;16.478;2023-09-07T04:24:50;100446.97;;;14.71;69.19
19594;BME280;9944;48.240;16.478;2023-09-07T04:28:53;100448.75;;;14.69;69.49
19594;BME280;9944;48.240;16.478;2023-09-07T04:32:57;100448.78;;;14.66;69.61
19594;BME280;9944;48.240;16.478;2023-09-07T04:37:00;100453.22;;;14.66;69.68
19594;BME280;9944;48.240;16.478;2023-09-07T04:41:10;100460.34;;;14.65;69.75
19594;BME280;9944;48.240;16.478;2023-09-07T04:45:15;100460.34;;;14.64;69.87
19594;BME280;9944;48.240;16.478;2023-09-07T04:49:19;100473.63;;;14.64;70.01
19594;BME280;9944;48.240;16.478;2023-09-07T04:53:23;100462.97;;;14.67;70.26
19594;BME280;9944;48.240;16.478;2023-09-07T04:57:30;100477.13;;;14.69;70.68
19594;BME280;9944;48.240;16.478;2023-09-07T05:01:34;100478.00;;;14.68;70.69
19594;BME280;9944;48.240;16.478;2023-09-07T05:05:38;100477.13;;;14.69;70.69
19594;BME280;9944;48.240;16.478;2023-09-07T05:09:43;100473.59;;;14.68;70.80
19594;BME280;9944;48.240;16.478;2023-09-07T05:13:48;100488.63;;;14.68;71.02
19594;BME280;9944;48.240;16.478;2023-09-07T05:17:52;100491.31;;;14.66;71.25
19594;BME280;9944;48.240;16.478;2023-09-07T05:21:55;100494.88;;;14.67;71.38
19594;BME280;9944;48.240;16.478;2023-09-07T05:26:02;100490.41;;;14.69;71.79
19594;BME280;9944;48.240;16.478;2023-09-07T05:30:08;100497.44;;;14.73;71.93
19594;BME280;9944;48.240;16.478;2023-09-07T05:34:13;100503.63;;;14.76;72.03
19594;BME280;9944;48.240;16.478;2023-09-07T05:38:16;100488.53;;;14.80;72.03
19594;BME280;9944;48.240;16.478;2023-09-07T05:42:20;100499.13;;;14.83;72.29
19594;BME280;9944;48.240;16.478;2023-09-07T05:46:25;100493.78;;;14.89;72.51
19594;BME280;9944;48.240;16.478;2023-09-07T05:50:29;100493.72;;;14.96;72.67
19594;BME280;9944;48.240;16.478;2023-09-07T05:54:33;100498.97;;;15.02;72.69
19594;BME280;9944;48.240;16.478;2023-09-07T05:58:36;100497.13;;;15.08;72.78
19594;BME280;9944;48.240;16.478;2023-09-07T06:02:42;100498.84;;;15.14;72.57
19594;BME280;9944;48.240;16.478;2023-09-07T06:06:47;100495.25;;;15.18;72.37
19594;BME280;9944;48.240;16.478;2023-09-07T06:10:51;100498.69;;;15.26;72.38
19594;BME280;9944;48.240;16.478;2023-09-07T06:14:54;100496.84;;;15.33;72.38
19594;BME280;9944;48.240;16.478;2023-09-07T06:18:59;100490.53;;;15.42;72.37
19594;BME280;9944;48.240;16.478;2023-09-07T06:23:03;100497.53;;;15.49;72.59
19594;BME280;9944;48.240;16.478;2023-09-07T06:27:07;100503.66;;;15.57;73.02
19594;BME280;9944;48.240;16.478;2023-09-07T06:31:11;100502.69;;;15.63;72.62
19594;BME280;9944;48.240;16.478;2023-09-07T06:35:17;100503.44;;;15.73;72.38
19594;BME280;9944;48.240;16.478;2023-09-07T06:39:22;100506.81;;;15.84;72.37
19594;BME280;9944;48.240;16.478;2023-09-07T06:43:25;100512.00;;;15.96;72.49
19594;BME280;9944;48.240;16.478;2023-09-07T06:47:30;100513.63;;;16.06;72.20
19594;BME280;9944;48.240;16.478;2023-09-07T06:51:37;100516.13;;;16.17;72.15
19594;BME280;9944;48.240;16.478;2023-09-07T06:55:40;100508.00;;;16.28;71.81
19594;BME280;9944;48.240;16.478;2023-09-07T06:59:44;100514.03;;;16.38;71.20
19594;BME280;9944;48.240;16.478;2023-09-07T07:03:48;100516.53;;;16.49;70.79
19594;BME280;9944;48.240;16.478;2023-09-07T07:07:53;100517.25;;;16.60;70.56
19594;BME280;9944;48.240;16.478;2023-09-07T07:11:59;100513.47;;;16.73;70.17
19594;BME280;9944;48.240;16.478;2023-09-07T07:16:04;100509.59;;;16.91;69.97
19594;BME280;9944;48.240;16.478;2023-09-07T07:20:09;100514.63;;;17.08;69.49
19594;BME280;9944;48.240;16.478;2023-09-07T07:24:15;100511.59;;;17.27;68.66
19594;BME280;9944;48.240;16.478;2023-09-07T07:28:20;100523.69;;;17.46;67.78
19594;BME280;9944;48.240;16.478;2023-09-07T07:32:24;100514.34;;;17.66;67.01
19594;BME280;9944;48.240;16.478;2023-09-07T07:36:28;100515.69;;;17.88;66.26
19594;BME280;9944;48.240;16.478;2023-09-07T07:40:38;100515.19;;;18.10;65.73
19594;BME280;9944;48.240;16.478;2023-09-07T07:44:42;100507.59;;;18.29;65.25
19594;BME280;9944;48.240;16.478;2023-09-07T07:48:47;100509.75;;;18.50;64.63
19594;BME280;9944;48.240;16.478;2023-09-07T07:52:50;100512.88;;;18.69;63.95
19594;BME280;9944;48.240;16.478;2023-09-07T07:56:56;100515.91;;;18.90;63.35
19594;BME280;9944;48.240;16.478;2023-09-07T08:00:59;100523.47;;;19.07;62.30
19594;BME280;9944;48.240;16.478;2023-09-07T08:05:07;100515.00;;;19.22;62.12
19594;BME280;9944;48.240;16.478;2023-09-07T08:09:12;100517.13;;;19.42;61.53
19594;BME280;9944;48.240;16.478;2023-09-07T08:13:17;100511.25;;;19.61;61.51
19594;BME280;9944;48.240;16.478;2023-09-07T08:17:22;100514.44;;;19.75;60.59
19594;BME280;9944;48.240;16.478;2023-09-07T08:21:27;100514.00;;;19.89;60.53
19594;BME280;9944;48.240;16.478;2023-09-07T08:25:31;100515.31;;;20.04;60.04
19594;BME280;9944;48.240;16.478;2023-09-07T08:29:36;100513.91;;;20.21;59.77
19594;BME280;9944;48.240;16.478;2023-09-07T08:33:40;100517.88;;;20.37;59.26
19594;BME280;9944;48.240;16.478;2023-09-07T08:37:43;100509.34;;;20.51;58.90
19594;BME280;9944;48.240;16.478;2023-09-07T08:41:47;100518.53;;;20.70;58.77
19594;BME280;9944;48.240;16.478;2023-09-07T08:46:09;100516.22;;;20.86;57.76
19594;BME280;9944;48.240;16.478;2023-09-07T08:50:17;100512.16;;;21.00;58.01
19594;BME280;9944;48.240;16.478;2023-09-07T08:54:22;100512.66;;;21.12;57.30
19594;BME280;9944;48.240;16.478;2023-09-07T08:58:26;100513.78;;;21.30;57.22
19594;BME280;9944;48.240;16.478;2023-09-07T09:02:31;100497.03;;;21.47;57.11
19594;BME280;9944;48.240;16.478;2023-09-07T09:06:35;100502.56;;;21.66;56.65
19594;BME280;9944;48.240;16.478;2023-09-07T09:10:39;100503.63;;;21.86;55.80
19594;BME280;9944;48.240;16.478;2023-09-07T09:14:43;100501.28;;;22.00;55.60
19594;BME280;9944;48.240;16.478;2023-09-07T09:18:49;100498.78;;;22.18;54.69
19594;BME280;9944;48.240;16.478;2023-09-07T09:22:55;100498.16;;;22.33;53.57
19594;BME280;9944;48.240;16.478;2023-09-07T09:26:58;100493.75;;;22.53;53.68
19594;BME280;9944;48.240;16.478;2023-09-07T09:31:02;100482.34;;;22.68;52.89
19594;BME280;9944;48.240;16.478;2023-09-07T09:35:08;100479.97;;;22.83;52.40
19594;BME280;9944;48.240;16.478;2023-09-07T09:39:21;100482.78;;;23.00;51.52
19594;BME280;9944;48.240;16.478;2023-09-07T09:43:25;100474.94;;;23.14;50.35
19594;BME280;9944;48.240;16.478;2023-09-07T09:47:30;100476.19;;;23.28;49.81
19594;BME280;9944;48.240;16.478;2023-09-07T09:51:36;100464.84;;;23.40;48.87
19594;BME280;9944;48.240;16.478;2023-09-07T09:55:39;100464.25;;;23.52;48.85
19594;BME280;9944;48.240;16.478;2023-09-07T09:59:43;100461.84;;;23.65;47.24
19594;BME280;9944;48.240;16.478;2023-09-07T10:03:48;100460.31;;;23.79;48.18
19594;BME280;9944;48.240;16.478;2023-09-07T10:08:00;100457.56;;;23.99;47.09
19594;BME280;9944;48.240;16.478;2023-09-07T10:12:10;100453.28;;;24.12;46.65
19594;BME280;9944;48.240;16.478;2023-09-07T10:16:18;100449.91;;;24.26;46.92
19594;BME280;9944;48.240;16.478;2023-09-07T10:20:23;100440.22;;;24.40;45.37
19594;BME280;9944;48.240;16.478;2023-09-07T10:24:29;100444.13;;;24.52;44.68
19594;BME280;9944;48.240;16.478;2023-09-07T10:28:32;100436.22;;;24.66;43.82
19594;BME280;9944;48.240;16.478;2023-09-07T10:32:39;100427.38;;;24.80;43.98
19594;BME280;9944;48.240;16.478;2023-09-07T10:36:43;100425.72;;;24.95;43.40
19594;BME280;9944;48.240;16.478;2023-09-07T10:40:54;100431.31;;;25.08;42.26
19594;BME280;9944;48.240;16.478;2023-09-07T10:45:08;100421.75;;;25.18;41.63
19594;BME280;9944;48.240;16.478;2023-09-07T10:49:13;100423.16;;;25.25;41.65
19594;BME280;9944;48.240;16.478;2023-09-07T10:53:24;100420.16;;;25.31;40.66
19594;BME280;9944;48.240;16.478;2023-09-07T10:57:29;100422.03;;;25.47;41.08
19594;BME280;9944;48.240;16.478;2023-09-07T11:01:32;100409.53;;;25.60;40.82
19594;BME280;9944;48.240;16.478;2023-09-07T11:05:37;100424.28;;;25.70;40.13
19594;BME280;9944;48.240;16.478;2023-09-07T11:09:42;100421.31;;;25.75;39.44
19594;BME280;9944;48.240;16.478;2023-09-07T11:13:47;100420.16;;;25.79;39.08
19594;BME280;9944;48.240;16.478;2023-09-07T11:17:50;100421.66;;;25.85;39.12
19594;BME280;9944;48.240;16.478;2023-09-07T11:21:57;100422.09;;;25.93;39.06
19594;BME280;9944;48.240;16.478;2023-09-07T11:26:03;100409.88;;;26.02;38.70
19594;BME280;9944;48.240;16.478;2023-09-07T11:30:10;100418.16;;;26.14;38.74
19594;BME280;9944;48.240;16.478;2023-09-07T11:34:15;100412.19;;;26.24;38.50
19594;BME280;9944;48.240;16.478;2023-09-07T11:38:19;100411.84;;;26.30;38.52
19594;BME280;9944;48.240;16.478;2023-09-07T11:42:22;100409.03;;;26.31;38.60
19594;BME280;9944;48.240;16.478;2023-09-07T11:46:27;100403.75;;;26.44;38.81
19594;BME280;9944;48.240;16.478;2023-09-07T11:50:31;100404.44;;;26.48;38.71
19594;BME280;9944;48.240;16.478;2023-09-07T11:54:34;100390.28;;;26.59;38.99
19594;BME280;9944;48.240;16.478;2023-09-07T11:58:39;100396.88;;;26.69;38.70
19594;BME280;9944;48.240;16.478;2023-09-07T12:02:44;100394.75;;;26.74;39.27
19594;BME280;9944;48.240;16.478;2023-09-07T12:06:48;100388.75;;;26.83;38.83
19594;BME280;9944;48.240;16.478;2023-09-07T12:10:51;100381.03;;;26.91;39.07
19594;BME280;9944;48.240;16.478;2023-09-07T12:14:55;100386.06;;;26.98;38.86
19594;BME280;9944;48.240;16.478;2023-09-07T12:19:00;100378.50;;;27.03;38.42
19594;BME280;9944;48.240;16.478;2023-09-07T12:23:04;100370.38;;;27.03;38.34
19594;BME280;9944;48.240;16.478;2023-09-07T12:27:07;100378.63;;;27.01;38.71
19594;BME280;9944;48.240;16.478;2023-09-07T12:31:10;100376.66;;;27.03;38.62
19594;BME280;9944;48.240;16.478;2023-09-07T12:35:15;100367.47;;;27.06;38.62
19594;BME280;9944;48.240;16.478;2023-09-07T12:39:19;100358.75;;;27.01;37.58
19594;BME280;9944;48.240;16.478;2023-09-07T12:43:23;100363.97;;;27.04;38.89
19594;BME280;9944;48.240;16.478;2023-09-07T12:47:27;100361.75;;;27.10;38.57
19594;BME280;9944;48.240;16.478;2023-09-07T12:51:32;100351.19;;;27.06;38.43
19594;BME280;9944;48.240;16.478;2023-09-07T12:55:35;100345.78;;;27.06;38.31
19594;BME280;9944;48.240;16.478;2023-09-07T12:59:39;100344.06;;;27.05;38.67
19594;BME280;9944;48.240;16.478;2023-09-07T13:03:43;100334.16;;;27.04;38.58
19594;BME280;9944;48.240;16.478;2023-09-07T13:07:47;100346.38;;;26.97;38.70
19594;BME280;9944;48.240;16.478;2023-09-07T13:11:51;100344.06;;;27.05;39.14
19594;BME280;9944;48.240;16.478;2023-09-07T13:15:54;100332.69;;;27.13;39.26
19594;BME280;9944;48.240;16.478;2023-09-07T13:19:58;100343.44;;;27.14;38.63
19594;BME280;9944;48.240;16.478;2023-09-07T13:24:04;100333.88;;;27.08;38.75
19594;BME280;9944;48.240;16.478;2023-09-07T13:28:07;100343.19;;;27.04;38.45
19594;BME280;9944;48.240;16.478;2023-09-07T13:32:11;100331.06;;;26.96;38.77
19594;BME280;9944;48.240;16.478;2023-09-07T13:36:14;100332.81;;;26.97;38.63
19594;BME280;9944;48.240;16.478;2023-09-07T13:40:20;100326.91;;;26.90;38.96
19594;BME280;9944;48.240;16.478;2023-09-07T13:44:26;100324.22;;;26.90;39.10
19594;BME280;9944;48.240;16.478;2023-09-07T13:48:29;100322.41;;;26.90;39.05
19594;BME280;9944;48.240;16.478;2023-09-07T13:52:34;100322.25;;;26.92;38.77
19594;BME280;9944;48.240;16.478;2023-09-07T13:56:39;100323.53;;;26.86;38.85
19594;BME280;9944;48.240;16.478;2023-09-07T14:00:44;100313.88;;;26.82;38.75
19594;BME280;9944;48.240;16.478;2023-09-07T14:04:48;100321.31;;;26.79;39.00
19594;BME280;9944;48.240;16.478;2023-09-07T14:08:52;100315.41;;;26.72;39.03
19594;BME280;9944;48.240;16.478;2023-09-07T14:12:57;100312.72;;;26.72;39.27
19594;BME280;9944;48.240;16.478;2023-09-07T14:17:01;100320.84;;;26.72;39.28
19594;BME280;9944;48.240;16.478;2023-09-07T14:21:05;100313.88;;;26.68;39.14
19594;BME280;9944;48.240;16.478;2023-09-07T14:25:08;100314.06;;;26.65;39.05
19594;BME280;9944;48.240;16.478;2023-09-07T14:29:13;100311.34;;;26.65;39.25
19594;BME280;9944;48.240;16.478;2023-09-07T14:33:16;100308.84;;;26.62;39.16
19594;BME280;9944;48.240;16.478;2023-09-07T14:37:20;100308.25;;;26.57;39.05
19594;BME280;9944;48.240;16.478;2023-09-07T14:41:23;100313.22;;;26.48;38.87
19594;BME280;9944;48.240;16.478;2023-09-07T14:45:28;100313.63;;;26.42;38.74
19594;BME280;9944;48.240;16.478;2023-09-07T14:49:32;100306.84;;;26.35;38.99
19594;BME280;9944;48.240;16.478;2023-09-07T14:53:35;100311.38;;;26.34;39.02
19594;BME280;9944;48.240;16.478;2023-09-07T14:57:39;100299.09;;;26.29;38.97
19594;BME280;9944;48.240;16.478;2023-09-07T15:01:44;100295.72;;;26.25;39.33
19594;BME280;9944;48.240;16.478;2023-09-07T15:06:01;100300.44;;;26.22;39.36
19594;BME280;9944;48.240;16.478;2023-09-07T15:10:05;100297.16;;;26.16;39.08
19594;BME280;9944;48.240;16.478;2023-09-07T15:14:09;100301.19;;;26.09;39.07
19594;BME280;9944;48.240;16.478;2023-09-07T15:18:13;100302.44;;;26.04;39.68
19594;BME280;9944;48.240;16.478;2023-09-07T15:22:18;100291.97;;;25.97;39.65
19594;BME280;9944;48.240;16.478;2023-09-07T15:26:22;100302.13;;;25.94;39.77
19594;BME280;9944;48.240;16.478;2023-09-07T15:30:26;100287.00;;;25.90;39.92
19594;BME280;9944;48.240;16.478;2023-09-07T15:34:31;100297.41;;;25.82;39.65
19594;BME280;9944;48.240;16.478;2023-09-07T15:38:35;100297.75;;;25.75;39.74
19594;BME280;9944;48.240;16.478;2023-09-07T15:42:39;100299.88;;;25.70;39.79
19594;BME280;9944;48.240;16.478;2023-09-07T15:46:42;100302.78;;;25.67;39.98
19594;BME280;9944;48.240;16.478;2023-09-07T15:50:47;100301.97;;;25.65;39.69
19594;BME280;9944;48.240;16.478;2023-09-07T15:54:51;100307.66;;;25.60;39.63
19594;BME280;9944;48.240;16.478;2023-09-07T15:58:55;100311.41;;;25.58;39.76
19594;BME280;9944;48.240;16.478;2023-09-07T16:03:00;100304.63;;;25.51;40.10
19594;BME280;9944;48.240;16.478;2023-09-07T16:07:05;100310.28;;;25.46;39.25
19594;BME280;9944;48.240;16.478;2023-09-07T16:11:08;100314.38;;;25.37;39.43
19594;BME280;9944;48.240;16.478;2023-09-07T16:15:12;100312.03;;;25.31;39.72
19594;BME280;9944;48.240;16.478;2023-09-07T16:19:15;100315.78;;;25.29;39.96
19594;BME280;9944;48.240;16.478;2023-09-07T16:23:20;100304.41;;;25.22;39.27
19594;BME280;9944;48.240;16.478;2023-09-07T16:27:25;100305.56;;;25.18;40.08
19594;BME280;9944;48.240;16.478;2023-09-07T16:31:29;100309.41;;;25.14;40.02
19594;BME280;9944;48.240;16.478;2023-09-07T16:35:33;100309.47;;;25.12;40.59
19594;BME280;9944;48.240;16.478;2023-09-07T16:39:39;100319.59;;;25.09;40.59
19594;BME280;9944;48.240;16.478;2023-09-07T16:43:43;100318.91;;;25.05;40.86
19594;BME280;9944;48.240;16.478;2023-09-07T16:47:46;100314.69;;;24.99;41.68
19594;BME280;9944;48.240;16.478;2023-09-07T16:51:50;100316.75;;;24.94;41.48
19594;BME280;9944;48.240;16.478;2023-09-07T16:55:57;100323.53;;;24.85;41.51
19594;BME280;9944;48.240;16.478;2023-09-07T17:00:01;100313.09;;;24.79;42.04
19594;BME280;9944;48.240;16.478;2023-09-07T17:04:06;100312.72;;;24.70;42.26
19594;BME280;9944;48.240;16.478;2023-09-07T17:08:10;100314.06;;;24.61;42.56
19594;BME280;9944;48.240;16.478;2023-09-07T17:12:15;100310.03;;;24.52;42.51
19594;BME280;9944;48.240;16.478;2023-09-07T17:16:18;100326.56;;;24.46;42.41
19594;BME280;9944;48.240;16.478;2023-09-07T17:20:21;100321.56;;;24.38;42.76
19594;BME280;9944;48.240;16.478;2023-09-07T17:24:25;100318.31;;;24.31;43.19
19594;BME280;9944;48.240;16.478;2023-09-07T17:28:31;100319.75;;;24.21;43.06
19594;BME280;9944;48.240;16.478;2023-09-07T17:32:44;100323.78;;;24.12;43.62
19594;BME280;9944;48.240;16.478;2023-09-07T17:36:47;100316.09;;;24.05;44.09
19594;BME280;9944;48.240;16.478;2023-09-07T17:40:51;100323.63;;;23.98;44.18
19594;BME280;9944;48.240;16.478;2023-09-07T17:44:56;100322.25;;;23.89;44.67
19594;BME280;9944;48.240;16.478;2023-09-07T17:49:00;100327.16;;;23.81;44.93
19594;BME280;9944;48.240;16.478;2023-09-07T17:53:03;100320.41;;;23.72;45.56
19594;BME280;9944;48.240;16.478;2023-09-07T17:57:07;100322.78;;;23.61;46.07
19594;BME280;9944;48.240;16.478;2023-09-07T18:01:13;100325.84;;;23.53;45.59
19594;BME280;9944;48.240;16.478;2023-09-07T18:05:17;100339.78;;;23.44;45.92
19594;BME280;9944;48.240;16.478;2023-09-07T18:09:23;100331.19;;;23.36;46.03
19594;BME280;9944;48.240;16.478;2023-09-07T18:13:27;100342.25;;;23.30;46.57
19594;BME280;9944;48.240;16.478;2023-09-07T18:17:32;100338.09;;;23.23;46.92
19594;BME280;9944;48.240;16.478;2023-09-07T18:21:37;100351.03;;;23.14;46.99
19594;BME280;9944;48.240;16.478;2023-09-07T18:25:41;100354.91;;;23.09;46.59
19594;BME280;9944;48.240;16.478;2023-09-07T18:29:45;100359.63;;;23.04;47.32
19594;BME280;9944;48.240;16.478;2023-09-07T18:33:50;100355.38;;;22.98;47.41
19594;BME280;9944;48.240;16.478;2023-09-07T18:37:53;100358.38;;;22.92;47.39
19594;BME280;9944;48.240;16.478;2023-09-07T18:41:57;100367.69;;;22.85;47.88
19594;BME280;9944;48.240;16.478;2023-09-07T18:46:05;100359.88;;;22.78;47.72
19594;BME280;9944;48.240;16.478;2023-09-07T18:50:12;100374.50;;;22.73;48.15
19594;BME280;9944;48.240;16.478;2023-09-07T18:54:15;100369.59;;;22.62;48.88
19594;BME280;9944;48.240;16.478;2023-09-07T18:58:19;100371.75;;;22.54;48.57
19594;BME280;9944;48.240;16.478;2023-09-07T19:02:22;100366.75;;;22.44;49.56
19594;BME280;9944;48.240;16.478;2023-09-07T19:06:27;100364.38;;;22.37;49.79
19594;BME280;9944;48.240;16.478;2023-09-07T19:10:31;100370.09;;;22.29;49.63
19594;BME280;9944;48.240;16.478;2023-09-07T19:14:34;100367.00;;;22.18;50.20
19594;BME280;9944;48.240;16.478;2023-09-07T19:18:38;100373.69;;;22.08;50.40
19594;BME280;9944;48.240;16.478;2023-09-07T19:22:43;100369.53;;;22.00;50.37
19594;BME280;9944;48.240;16.478;2023-09-07T19:26:46;100375.28;;;21.91;50.21
19594;BME280;9944;48.240;16.478;2023-09-07T19:30:51;100374.66;;;21.84;50.99
19594;BME280;9944;48.240;16.478;2023-09-07T19:34:54;100372.34;;;21.75;51.14
19594;BME280;9944;48.240;16.478;2023-09-07T19:39:01;100374.50;;;21.65;51.29
19594;BME280;9944;48.240;16.478;2023-09-07T19:43:05;100378.44;;;21.57;51.21
19594;BME280;9944;48.240;16.478;2023-09-07T19:47:09;100368.03;;;21.49;51.17
19594;BME280;9944;48.240;16.478;2023-09-07T19:51:14;100378.06;;;21.44;51.74
19594;BME280;9944;48.240;16.478;2023-09-07T19:55:19;100373.72;;;21.40;51.73
19594;BME280;9944;48.240;16.478;2023-09-07T19:59:23;100372.22;;;21.33;51.59
19594;BME280;9944;48.240;16.478;2023-09-07T20:03:27;100373.47;;;21.24;52.33
19594;BME280;9944;48.240;16.478;2023-09-07T20:07:30;100381.69;;;21.19;52.82
19594;BME280;9944;48.240;16.478;2023-09-07T20:11:36;100379.25;;;21.13;53.09
19594;BME280;9944;48.240;16.478;2023-09-07T20:15:40;100382.09;;;21.08;53.51
19594;BME280;9944;48.240;16.478;2023-09-07T20:19:43;100377.81;;;21.03;54.50
19594;BME280;9944;48.240;16.478;2023-09-07T20:23:47;100372.81;;;20.93;54.22
19594;BME280;9944;48.240;16.478;2023-09-07T20:27:52;100364.06;;;20.88;54.88
19594;BME280;9944;48.240;16.478;2023-09-07T20:31:56;100366.13;;;20.80;55.08
19594;BME280;9944;48.240;16.478;2023-09-07T20:36:00;100369.88;;;20.76;55.82
19594;BME280;9944;48.240;16.478;2023-09-07T20:40:05;100371.84;;;20.71;56.40
19594;BME280;9944;48.240;16.478;2023-09-07T20:44:13;100366.69;;;20.65;56.26
19594;BME280;9944;48.240;16.478;2023-09-07T20:48:17;100368.91;;;20.53;56.72
19594;BME280;9944;48.240;16.478;2023-09-07T20:52:21;100366.53;;;20.44;56.93
19594;BME280;9944;48.240;16.478;2023-09-07T20:56:25;100367.69;;;20.37;57.25
19594;BME280;9944;48.240;16.478;2023-09-07T21:00:29;100366.06;;;20.33;57.62
19594;BME280;9944;48.240;16.478;2023-09-07T21:04:33;100373.44;;;20.25;57.41
19594;BME280;9944;48.240;16.478;2023-09-07T21:08:37;100373.66;;;20.18;58.04
19594;BME280;9944;48.240;16.478;2023-09-07T21:12:41;100377.47;;;20.11;57.98
19594;BME280;9944;48.240;16.478;2023-09-07T21:16:47;100379.56;;;20.03;58.25
19594;BME280;9944;48.240;16.478;2023-09-07T21:20:51;100377.22;;;19.92;58.43